createdAt,value
2019-02-27T00:00:09.178Z,18.97
2019-02-27T00:02:40.246Z,17.67
2019-02-27T00:05:09.555Z,17.40
2019-02-27T00:07:38.596Z,17.27
2019-02-27T00:10:09.727Z,21.73
2019-02-27T00:12:38.944Z,17.83
2019-02-27T00:15:08.450Z,16.70
2019-02-27T00:17:37.644Z,20.33
2019-02-27T00:20:07.114Z,19.80
2019-02-27T00:22:36.250Z,19.80
2019-02-27T00:25:06.064Z,14.37
2019-02-27T00:27:35.452Z,25.47
2019-02-27T00:30:05.868Z,20.00
2019-02-27T00:32:35.461Z,19.60
2019-02-27T00:35:07.203Z,21.07
2019-02-27T00:37:36.393Z,16.45
2019-02-27T00:40:06.291Z,17.17
2019-02-27T00:42:35.840Z,23.93
2019-02-27T00:45:07.045Z,17.47
2019-02-27T00:47:36.478Z,15.57
2019-02-27T00:50:06.824Z,17.63
2019-02-27T00:52:36.040Z,21.53
2019-02-27T00:55:05.728Z,17.90
2019-02-27T00:57:34.860Z,17.27
2019-02-27T01:00:06.592Z,19.90
2019-02-27T01:02:35.262Z,20.30
2019-02-27T01:05:06.223Z,16.80
2019-02-27T01:07:36.612Z,25.17
2019-02-27T01:10:06.632Z,18.00
2019-02-27T01:12:36.029Z,16.43
2019-02-27T01:15:07.987Z,18.00
2019-02-27T01:17:36.529Z,19.03
2019-02-27T01:20:06.365Z,23.20
2019-02-27T01:22:35.528Z,24.37
2019-02-27T01:25:05.729Z,32.50
2019-02-27T01:27:37.928Z,23.18
2019-02-27T01:30:07.132Z,24.83
2019-02-27T01:32:36.580Z,28.13
2019-02-27T01:35:06.495Z,29.20
2019-02-27T01:37:35.640Z,26.37
2019-02-27T01:40:05.912Z,26.27
2019-02-27T01:42:35.246Z,28.23
2019-02-27T01:45:05.021Z,26.87
2019-02-27T01:47:36.136Z,25.40
2019-02-27T01:50:27.292Z,29.93
2019-02-27T01:52:57.760Z,28.23
2019-02-27T01:55:27.237Z,29.07
2019-02-27T01:57:57.833Z,28.33
2019-02-27T02:00:27.253Z,32.33
2019-02-27T02:02:56.477Z,28.93
2019-02-27T02:05:28.519Z,27.83
2019-02-27T02:07:57.689Z,26.02
2019-02-27T02:10:28.309Z,28.90
2019-02-27T02:13:14.923Z,28.30
2019-02-27T02:16:18.906Z,27.37
2019-02-27T02:19:22.019Z,21.80
2019-02-27T02:22:16.377Z,23.30
2019-02-27T02:25:04.651Z,29.63
2019-02-27T02:28:14.753Z,29.87
2019-02-27T02:30:58.228Z,25.70
2019-02-27T02:33:37.951Z,27.47
2019-02-27T02:36:52.629Z,32.97
2019-02-27T02:39:59.976Z,35.28
2019-02-27T02:43:29.264Z,23.53
2019-02-27T02:46:08.666Z,27.82
2019-02-27T02:49:08.018Z,29.20
2019-02-27T02:51:50.616Z,24.77
2019-02-27T02:54:37.476Z,21.87
2019-02-27T02:57:35.923Z,17.90
2019-02-27T03:00:34.727Z,31.83
2019-02-27T03:03:23.069Z,21.17
2019-02-27T03:06:17.592Z,18.17
2019-02-27T03:09:21.557Z,19.17
2019-02-27T03:12:29.571Z,19.20
2019-02-27T03:15:17.552Z,17.97
2019-02-27T03:18:40.513Z,24.30
2019-02-27T03:22:03.225Z,18.60
2019-02-27T03:24:42.084Z,20.33
2019-02-27T03:27:29.586Z,33.02
2019-02-27T03:30:37.549Z,23.00
2019-02-27T03:33:46.121Z,25.80
2019-02-27T03:36:39.034Z,23.43
2019-02-27T03:39:35.018Z,20.32
2019-02-27T03:42:34.155Z,19.43
2019-02-27T03:45:38.772Z,25.97
2019-02-27T03:48:27.746Z,16.43
2019-02-27T03:51:36.024Z,21.23
2019-02-27T03:54:44.136Z,20.30
2019-02-27T03:57:29.969Z,22.70
2019-02-27T04:00:34.362Z,17.67
2019-02-27T04:03:22.441Z,19.00
2019-02-27T04:06:46.341Z,19.03
2019-02-27T04:09:18.646Z,18.93
2019-02-27T04:11:47.084Z,24.27
2019-02-27T04:14:29.961Z,18.70
2019-02-27T04:17:05.402Z,13.57
2019-02-27T04:19:30.115Z,18.70
2019-02-27T04:22:01.105Z,15.33
2019-02-27T04:24:30.388Z,15.00
2019-02-27T04:26:59.712Z,18.15
2019-02-27T04:29:28.746Z,20.83
2019-02-27T04:31:57.925Z,21.43
2019-02-27T04:34:27.361Z,14.47
2019-02-27T04:36:56.952Z,17.97
2019-02-27T04:39:26.030Z,18.27
2019-02-27T04:41:55.107Z,24.20
2019-02-27T04:44:24.212Z,16.87
2019-02-27T04:46:55.081Z,15.90
2019-02-27T04:49:25.508Z,17.53
2019-02-27T04:51:54.696Z,19.53
2019-02-27T04:54:23.930Z,15.28
2019-02-27T04:56:55.097Z,18.00
2019-02-27T04:59:23.926Z,15.43
2019-02-27T05:01:53.284Z,18.00
2019-02-27T05:04:22.498Z,17.00
2019-02-27T05:06:51.680Z,17.98
2019-02-27T05:09:25.572Z,15.00
2019-02-27T05:11:54.673Z,13.83
2019-02-27T05:14:24.878Z,24.70
2019-02-27T05:16:55.080Z,22.43
2019-02-27T05:19:27.476Z,16.97
2019-02-27T05:21:56.807Z,16.57
2019-02-27T05:24:25.884Z,16.60
2019-02-27T05:26:55.336Z,15.80
2019-02-27T05:29:24.495Z,14.53
2019-02-27T05:31:53.997Z,16.50
2019-02-27T05:34:23.727Z,17.03
2019-02-27T05:36:53.209Z,17.70
2019-02-27T05:39:22.814Z,17.00
2019-02-27T05:41:51.966Z,14.13
2019-02-27T05:44:22.354Z,19.83
2019-02-27T05:46:51.584Z,12.47
2019-02-27T05:49:20.839Z,14.80
2019-02-27T05:51:50.421Z,16.67
2019-02-27T05:54:19.913Z,14.60
2019-02-27T05:56:49.748Z,14.30
2019-02-27T05:59:19.630Z,13.90
2019-02-27T06:01:49.040Z,15.85
2019-02-27T06:04:18.876Z,15.33
2019-02-27T06:06:48.066Z,14.30
2019-02-27T06:09:17.472Z,18.50
2019-02-27T06:11:47.192Z,21.47
2019-02-27T06:14:16.393Z,18.27
2019-02-27T06:16:48.712Z,13.67
2019-02-27T06:19:17.774Z,15.83
2019-02-27T06:21:47.457Z,18.07
2019-02-27T06:24:18.872Z,13.20
2019-02-27T06:26:48.125Z,12.47
2019-02-27T06:29:17.326Z,14.23
2019-02-27T06:31:47.703Z,19.60
2019-02-27T06:34:17.066Z,14.70
2019-02-27T06:36:46.412Z,15.50
2019-02-27T06:39:15.506Z,13.90
2019-02-27T06:41:47.247Z,13.97
2019-02-27T06:44:32.832Z,17.40
2019-02-27T06:47:07.214Z,17.90
2019-02-27T06:49:36.421Z,16.47
2019-02-27T06:52:08.952Z,16.80
2019-02-27T06:54:37.772Z,15.93
2019-02-27T06:57:07.776Z,14.47
2019-02-27T06:59:37.836Z,22.60
2019-02-27T07:02:06.980Z,14.33
2019-02-27T07:04:39.645Z,14.07
2019-02-27T07:07:07.363Z,16.00
2019-02-27T07:09:36.612Z,15.70
2019-02-27T07:12:07.236Z,23.93
2019-02-27T07:14:39.239Z,16.40
2019-02-27T07:17:07.613Z,20.80
2019-02-27T07:19:36.656Z,27.87
2019-02-27T07:22:12.529Z,32.70
2019-02-27T07:24:40.888Z,32.30
2019-02-27T07:27:14.672Z,36.17
2019-02-27T07:29:44.156Z,37.50
2019-02-27T07:32:13.344Z,31.37
2019-02-27T07:34:42.929Z,29.93
2019-02-27T07:37:12.943Z,33.50
2019-02-27T07:39:43.396Z,30.17
2019-02-27T07:42:12.747Z,28.03
2019-02-27T07:44:42.285Z,33.23
2019-02-27T07:47:11.425Z,22.47
2019-02-27T07:49:41.596Z,25.63
2019-02-27T07:52:10.904Z,20.03
2019-02-27T07:54:40.132Z,19.97
2019-02-27T07:57:11.144Z,22.33
2019-02-27T07:59:40.883Z,22.90
2019-02-27T08:02:10.424Z,16.40
2019-02-27T08:04:39.664Z,15.53
2019-02-27T08:07:10.089Z,15.17
2019-02-27T08:09:40.761Z,12.90
2019-02-27T08:12:09.856Z,16.40
2019-02-27T08:14:39.345Z,14.10
2019-02-27T08:17:17.271Z,16.30
2019-02-27T08:19:39.375Z,17.67
2019-02-27T08:22:08.813Z,18.05
2019-02-27T08:24:39.537Z,19.57
2019-02-27T08:27:09.692Z,21.13
2019-02-27T08:29:40.656Z,17.53
2019-02-27T08:32:09.989Z,12.53
2019-02-27T08:34:39.672Z,19.97
2019-02-27T08:37:12.479Z,16.43
2019-02-27T08:39:43.421Z,16.93
2019-02-27T08:42:12.673Z,15.13
2019-02-27T08:44:46.672Z,17.23
2019-02-27T08:47:16.316Z,20.53
2019-02-27T08:49:45.660Z,19.10
2019-02-27T08:54:50.255Z,21.03
2019-02-27T08:57:19.708Z,17.63
2019-02-27T09:02:24.249Z,18.77
2019-02-27T09:04:53.397Z,25.55
2019-02-27T09:07:22.516Z,17.90
2019-02-27T09:09:52.384Z,17.63
2019-02-27T09:12:21.761Z,19.77
2019-02-27T09:14:51.720Z,24.80
2019-02-27T09:17:20.913Z,20.30
2019-02-27T09:19:51.514Z,23.27
2019-02-27T09:22:20.622Z,19.70
2019-02-27T09:24:49.741Z,19.30
2019-02-27T09:29:54.741Z,18.62
2019-02-27T09:32:24.544Z,19.45
2019-02-27T09:34:53.544Z,19.27
2019-02-27T09:37:23.051Z,17.40
2019-02-27T09:39:52.204Z,22.23
2019-02-27T09:42:21.439Z,16.13
2019-02-27T09:44:50.872Z,17.63
2019-02-27T09:47:23.245Z,20.67
2019-02-27T09:49:51.509Z,18.03
2019-02-27T09:52:20.672Z,21.90
2019-02-27T09:54:49.752Z,20.47
2019-02-27T09:57:21.601Z,17.27
2019-02-27T09:59:51.174Z,16.73
2019-02-27T10:02:21.952Z,15.20
2019-02-27T10:04:51.203Z,14.23
2019-02-27T10:07:39.799Z,19.87
2019-02-27T10:10:10.422Z,17.83
2019-02-27T10:12:40.176Z,17.15
2019-02-27T10:15:09.272Z,15.37
2019-02-27T10:17:41.076Z,15.83
2019-02-27T10:20:09.337Z,16.80
2019-02-27T10:22:39.306Z,15.20
2019-02-27T10:25:08.711Z,16.57
2019-02-27T10:27:38.680Z,15.83
2019-02-27T10:30:11.478Z,16.03
2019-02-27T10:32:39.900Z,19.92
2019-02-27T10:35:09.236Z,16.37
2019-02-27T10:37:42.183Z,12.87
2019-02-27T10:40:13.064Z,18.60
2019-02-27T10:42:42.160Z,15.27
2019-02-27T10:45:11.352Z,13.40
2019-02-27T10:47:41.247Z,13.27
2019-02-27T10:50:12.517Z,17.93
2019-02-27T10:52:41.727Z,14.27
2019-02-27T10:55:14.169Z,17.67
2019-02-27T10:57:44.816Z,16.10
2019-02-27T11:00:25.163Z,22.87
2019-02-27T11:02:54.092Z,17.73
2019-02-27T11:05:23.605Z,24.37
2019-02-27T11:07:53.502Z,14.63
2019-02-27T11:10:23.373Z,15.23
2019-02-27T11:12:52.569Z,16.23
2019-02-27T11:15:21.741Z,15.33
2019-02-27T11:17:51.316Z,13.00
2019-02-27T11:20:21.759Z,13.33
2019-02-27T11:22:51.412Z,21.03
2019-02-27T11:25:22.547Z,18.40
2019-02-27T11:27:52.297Z,13.43
2019-02-27T11:30:23.848Z,15.10
2019-02-27T11:32:57.031Z,12.83
2019-02-27T11:35:25.178Z,16.03
2019-02-27T11:37:55.210Z,18.00
2019-02-27T11:40:26.148Z,19.37
2019-02-27T11:42:55.539Z,14.97
2019-02-27T11:45:25.248Z,12.30
2019-02-27T11:47:54.433Z,14.00
2019-02-27T11:50:24.175Z,13.90
2019-02-27T11:52:53.709Z,11.67
2019-02-27T11:55:42.037Z,11.57
2019-02-27T11:58:11.839Z,18.90
2019-02-27T12:00:41.205Z,13.73
2019-02-27T12:03:11.183Z,14.95
2019-02-27T12:05:41.468Z,16.40
2019-02-27T12:08:11.426Z,13.63
2019-02-27T12:10:40.687Z,17.23
2019-02-27T12:13:09.809Z,12.03
2019-02-27T12:15:43.297Z,15.83
2019-02-27T12:18:10.195Z,13.10
2019-02-27T12:20:40.267Z,13.03
2019-02-27T12:23:10.121Z,15.57
2019-02-27T12:25:40.002Z,13.00
2019-02-27T12:28:10.578Z,11.27
2019-02-27T12:30:39.796Z,16.73
2019-02-27T12:33:09.551Z,13.73
2019-02-27T12:35:38.676Z,14.50
2019-02-27T12:38:08.526Z,11.83
2019-02-27T12:40:38.143Z,16.80
2019-02-27T12:43:07.648Z,13.58
2019-02-27T12:45:36.725Z,14.47
2019-02-27T12:48:05.898Z,11.23
2019-02-27T12:50:35.156Z,8.30
2019-02-27T12:53:04.572Z,8.70
2019-02-27T12:55:36.259Z,11.87
2019-02-27T12:58:04.577Z,15.70
2019-02-27T13:00:34.205Z,9.77
2019-02-27T13:03:08.435Z,8.10
2019-02-27T13:05:34.466Z,10.27
2019-02-27T13:08:07.081Z,13.60
2019-02-27T13:10:36.228Z,10.27
2019-02-27T13:13:07.140Z,12.47
2019-02-27T13:15:38.364Z,12.40
2019-02-27T13:18:07.541Z,9.47
2019-02-27T13:20:37.078Z,16.00
2019-02-27T13:23:07.711Z,10.30
2019-02-27T13:25:37.152Z,11.87
2019-02-27T13:28:06.967Z,11.27
2019-02-27T13:30:36.152Z,11.93
2019-02-27T13:33:06.331Z,11.03
2019-02-27T13:35:35.429Z,7.93
2019-02-27T13:38:08.120Z,8.33
2019-02-27T13:40:37.368Z,10.63
2019-02-27T13:43:06.445Z,13.27
2019-02-27T13:45:35.663Z,8.03
2019-02-27T13:48:06.074Z,7.60
2019-02-27T13:50:35.365Z,9.10
2019-02-27T13:53:04.467Z,8.67
2019-02-27T13:55:33.553Z,17.07
2019-02-27T13:58:03.895Z,10.00
2019-02-27T14:00:33.350Z,13.20
2019-02-27T14:03:02.904Z,11.27
2019-02-27T14:05:36.057Z,14.87
2019-02-27T14:08:23.513Z,13.77
2019-02-27T14:10:54.025Z,16.93
2019-02-27T14:13:23.435Z,21.03
2019-02-27T14:15:52.646Z,16.25
2019-02-27T14:18:22.171Z,17.30
2019-02-27T14:20:51.421Z,19.73
2019-02-27T14:23:21.188Z,10.30
2019-02-27T14:25:50.848Z,12.07
2019-02-27T14:28:21.002Z,10.13
2019-02-27T14:30:51.809Z,14.07
2019-02-27T14:33:21.890Z,14.10
2019-02-27T14:35:51.175Z,12.57
2019-02-27T14:38:21.872Z,10.57
2019-02-27T14:40:52.248Z,8.67
2019-02-27T14:43:21.392Z,11.07
2019-02-27T14:45:51.323Z,14.37
2019-02-27T14:48:21.574Z,13.53
2019-02-27T14:50:51.442Z,15.20
2019-02-27T14:53:20.941Z,14.53
2019-02-27T14:55:50.257Z,13.03
2019-02-27T14:58:24.065Z,13.63
2019-02-27T15:00:50.848Z,12.98
2019-02-27T15:03:20.008Z,9.30
2019-02-27T15:05:49.946Z,10.30
2019-02-27T15:08:19.126Z,9.33
2019-02-27T15:10:48.332Z,11.07
2019-02-27T15:13:17.660Z,11.50
2019-02-27T15:15:46.836Z,13.60
2019-02-27T15:18:17.811Z,9.33
2019-02-27T15:20:46.920Z,14.37
2019-02-27T15:23:17.193Z,5.50
2019-02-27T15:25:46.277Z,7.90
2019-02-27T15:28:17.296Z,7.53
2019-02-27T15:30:47.294Z,8.23
2019-02-27T15:33:17.156Z,5.73
2019-02-27T15:35:46.353Z,4.60
2019-02-27T15:38:15.473Z,7.53
2019-02-27T15:40:44.588Z,6.63
2019-02-27T15:43:16.985Z,14.00
2019-02-27T15:45:47.935Z,9.13
2019-02-27T15:48:16.352Z,7.03
2019-02-27T15:50:45.841Z,5.90
2019-02-27T15:53:16.338Z,5.77
2019-02-27T15:55:45.881Z,11.38
2019-02-27T15:58:16.328Z,3.53
2019-02-27T16:00:45.434Z,8.07
2019-02-27T16:03:14.885Z,2.80
2019-02-27T16:05:44.121Z,6.23
2019-02-27T16:08:15.296Z,7.33
2019-02-27T16:10:54.351Z,6.07
2019-02-27T16:13:15.608Z,5.73
2019-02-27T16:15:45.237Z,5.42
2019-02-27T16:18:15.092Z,11.27
2019-02-27T16:20:47.073Z,7.10
2019-02-27T16:23:16.911Z,9.20
2019-02-27T16:25:46.385Z,8.35
2019-02-27T16:28:16.640Z,14.98
2019-02-27T16:30:45.957Z,9.97
2019-02-27T16:33:15.895Z,7.63
2019-02-27T16:35:46.399Z,10.37
2019-02-27T16:38:15.671Z,12.30
2019-02-27T16:40:45.180Z,12.23
2019-02-27T16:43:14.973Z,14.27
2019-02-27T16:45:44.600Z,12.07
2019-02-27T16:48:13.904Z,7.60
2019-02-27T16:50:45.078Z,6.73
2019-02-27T16:53:18.626Z,9.20
2019-02-27T16:55:45.675Z,10.30
2019-02-27T16:58:14.842Z,7.93
2019-02-27T17:00:45.462Z,6.97
2019-02-27T17:03:14.609Z,10.57
2019-02-27T17:05:43.928Z,15.53
2019-02-27T17:08:13.324Z,9.30
2019-02-27T17:10:42.437Z,8.10
2019-02-27T17:13:14.396Z,9.00
2019-02-27T17:15:42.484Z,9.23
2019-02-27T17:18:12.869Z,12.63
2019-02-27T17:20:46.609Z,12.63
2019-02-27T17:23:16.486Z,21.50
2019-02-27T17:25:45.884Z,17.92
2019-02-27T17:28:15.068Z,15.60
2019-02-27T17:30:44.294Z,13.23
2019-02-27T17:33:15.764Z,18.13
2019-02-27T17:35:45.747Z,15.73
2019-02-27T17:38:15.242Z,13.07
2019-02-27T17:40:44.354Z,15.43
2019-02-27T17:43:13.576Z,18.07
2019-02-27T17:45:44.325Z,13.50
2019-02-27T17:48:13.968Z,13.53
2019-02-27T17:50:43.437Z,15.13
2019-02-27T17:53:12.736Z,23.20
2019-02-27T17:55:42.621Z,16.17
2019-02-27T17:58:11.821Z,17.23
2019-02-27T18:00:59.124Z,18.67
2019-02-27T18:03:28.648Z,12.18
2019-02-27T18:06:00.205Z,15.63
2019-02-27T18:08:29.381Z,11.70
2019-02-27T18:10:58.812Z,15.40
2019-02-27T18:13:28.482Z,12.03
2019-02-27T18:15:57.719Z,14.37
2019-02-27T18:18:27.389Z,19.87
2019-02-27T18:20:59.519Z,53.23
2019-02-27T18:23:28.209Z,43.93
2019-02-27T18:25:57.372Z,17.35
2019-02-27T18:28:26.484Z,27.50
2019-02-27T18:30:55.597Z,24.97
2019-02-27T18:33:24.731Z,20.73
2019-02-27T18:35:54.634Z,27.97
2019-02-27T18:38:27.601Z,23.90
2019-02-27T18:40:54.690Z,18.80
2019-02-27T18:43:23.676Z,17.67
2019-02-27T18:45:53.244Z,16.50
2019-02-27T18:48:22.338Z,17.23
2019-02-27T18:50:51.884Z,17.60
2019-02-27T18:53:21.038Z,19.37
2019-02-27T18:55:50.908Z,15.93
2019-02-27T18:58:20.946Z,14.13
2019-02-27T19:00:50.652Z,9.77
2019-02-27T19:03:19.732Z,10.77
2019-02-27T19:05:48.976Z,10.23
2019-02-27T19:08:18.462Z,10.23
2019-02-27T19:10:47.624Z,10.87
2019-02-27T19:13:16.936Z,15.83
2019-02-27T19:15:46.528Z,8.68
2019-02-27T19:18:15.799Z,7.40
2019-02-27T19:20:45.292Z,12.68
2019-02-27T19:23:17.810Z,10.27
2019-02-27T19:25:48.095Z,14.83
2019-02-27T19:28:17.178Z,9.23
2019-02-27T19:30:46.496Z,10.13
2019-02-27T19:33:15.912Z,8.00
2019-02-27T19:35:45.100Z,8.93
2019-02-27T19:38:14.292Z,10.07
2019-02-27T19:40:43.467Z,16.90
2019-02-27T19:43:13.109Z,8.83
2019-02-27T19:45:43.068Z,9.67
2019-02-27T19:48:14.044Z,13.07
2019-02-27T19:50:46.296Z,13.40
2019-02-27T19:53:14.079Z,18.13
2019-02-27T19:55:43.291Z,10.17
2019-02-27T19:58:17.255Z,11.03
2019-02-27T20:00:48.527Z,15.93
2019-02-27T20:03:15.053Z,14.63
2019-02-27T20:05:45.158Z,11.70
2019-02-27T20:08:14.765Z,12.07
2019-02-27T20:10:44.395Z,8.20
2019-02-27T20:13:15.234Z,9.93
2019-02-27T20:15:45.761Z,8.47
2019-02-27T20:18:16.276Z,6.97
2019-02-27T20:20:45.788Z,12.40
2019-02-27T20:23:15.700Z,7.43
2019-02-27T20:25:45.705Z,7.57
2019-02-27T20:28:15.112Z,9.70
2019-02-27T20:30:44.741Z,5.57
2019-02-27T20:33:14.381Z,7.50
2019-02-27T20:35:43.452Z,6.73
2019-02-27T20:38:15.964Z,7.70
2019-02-27T20:40:46.441Z,7.03
2019-02-27T20:43:16.897Z,6.57
2019-02-27T20:45:46.937Z,16.13
2019-02-27T20:48:17.401Z,9.53
2019-02-27T20:50:46.820Z,6.57
2019-02-27T20:53:15.929Z,10.53
2019-02-27T20:55:45.031Z,4.70
2019-02-27T20:58:17.411Z,12.40
2019-02-27T21:00:46.845Z,5.35
2019-02-27T21:03:17.645Z,15.47
2019-02-27T21:05:48.626Z,9.60
2019-02-27T21:08:18.160Z,11.03
2019-02-27T21:10:47.868Z,7.07
2019-02-27T21:13:17.388Z,7.77
2019-02-27T21:15:46.568Z,8.63
2019-02-27T21:18:16.410Z,16.10
2019-02-27T21:20:46.227Z,8.70
2019-02-27T21:23:17.328Z,10.82
2019-02-27T21:25:49.190Z,12.23
2019-02-27T21:28:32.453Z,8.77
2019-02-27T21:31:02.437Z,7.50
2019-02-27T21:33:31.677Z,10.07
2019-02-27T21:36:03.348Z,11.77
2019-02-27T21:38:31.640Z,11.47
2019-02-27T21:41:04.528Z,14.93
2019-02-27T21:43:34.067Z,11.03
2019-02-27T21:46:03.400Z,14.97
2019-02-27T21:48:32.560Z,13.67
2019-02-27T21:51:01.740Z,19.03
2019-02-27T21:53:30.851Z,19.43
2019-02-27T21:56:00.200Z,21.20
2019-02-27T21:58:32.824Z,12.47
2019-02-27T22:01:02.550Z,15.03
2019-02-27T22:03:32.077Z,13.27
2019-02-27T22:06:01.370Z,16.60
2019-02-27T22:08:30.811Z,23.83
2019-02-27T22:10:59.970Z,22.93
2019-02-27T22:13:32.198Z,19.20
2019-02-27T22:16:00.136Z,17.33
2019-02-27T22:18:29.514Z,21.83
2019-02-27T22:20:59.696Z,21.30
2019-02-27T22:23:29.412Z,20.12
2019-02-27T22:26:03.064Z,19.80
2019-02-27T22:28:31.001Z,22.90
2019-02-27T22:31:03.331Z,27.35
2019-02-27T22:33:32.376Z,25.80
2019-02-27T22:36:02.021Z,30.97
2019-02-27T22:38:31.037Z,30.97
2019-02-27T22:41:00.577Z,34.20
2019-02-27T22:43:30.143Z,34.03
2019-02-27T22:45:59.492Z,40.73
2019-02-27T22:48:28.827Z,32.90
2019-02-27T22:50:58.300Z,39.40
2019-02-27T22:53:29.348Z,35.17
2019-02-27T22:55:59.253Z,37.47
2019-02-27T22:58:28.365Z,33.27
2019-02-27T23:01:10.622Z,31.20
2019-02-27T23:03:42.904Z,30.60
2019-02-27T23:06:13.904Z,33.57
2019-02-27T23:08:43.828Z,36.53
2019-02-27T23:11:13.373Z,28.20
2019-02-27T23:13:47.542Z,26.90
2019-02-27T23:16:17.140Z,28.33
2019-02-27T23:18:46.416Z,28.80
2019-02-27T23:21:16.748Z,34.33
2019-02-27T23:23:45.841Z,32.80
2019-02-27T23:26:20.196Z,38.43
2019-02-27T23:28:50.720Z,40.20
2019-02-27T23:31:23.390Z,33.47
2019-02-27T23:33:50.771Z,36.08
2019-02-27T23:36:22.103Z,35.93
2019-02-27T23:38:51.172Z,36.00
2019-02-27T23:41:23.319Z,45.88
2019-02-27T23:43:51.580Z,43.67
2019-02-27T23:46:21.013Z,39.87
2019-02-27T23:48:50.174Z,52.67
2019-02-27T23:51:19.296Z,55.47
2019-02-27T23:53:48.324Z,36.43
2019-02-27T23:56:20.664Z,49.20
2019-02-27T23:58:49.812Z,45.47
